createdAt,value
2023-02-04T00:02:31.556Z,8.01
2023-02-04T00:05:18.496Z,7.97
2023-02-04T00:08:06.796Z,8.00
2023-02-04T00:10:51.971Z,8.02
2023-02-04T00:13:36.918Z,8.06
2023-02-04T00:16:22.169Z,8.07
2023-02-04T00:19:07.269Z,8.10
2023-02-04T00:21:52.122Z,8.07
2023-02-04T00:24:38.073Z,8.12
2023-02-04T00:27:23.389Z,8.13
2023-02-04T00:30:09.319Z,8.14
2023-02-04T00:32:56.497Z,8.17
2023-02-04T00:35:41.385Z,8.15
2023-02-04T00:38:26.433Z,8.19
2023-02-04T00:41:11.813Z,8.22
2023-02-04T00:43:56.945Z,8.25
2023-02-04T00:46:42.710Z,8.21
2023-02-04T00:49:27.671Z,8.19
2023-02-04T00:52:12.488Z,8.20
2023-02-04T00:54:57.343Z,8.28
2023-02-04T00:57:42.932Z,8.28
2023-02-04T01:00:28.006Z,8.30
2023-02-04T01:03:13.111Z,8.34
2023-02-04T01:05:57.981Z,8.30
2023-02-04T01:08:43.143Z,8.33
2023-02-04T01:11:29.883Z,8.34
2023-02-04T01:14:14.882Z,8.25
2023-02-04T01:17:00.160Z,8.32
2023-02-04T01:19:45.539Z,8.35
2023-02-04T01:22:30.554Z,8.37
2023-02-04T01:25:15.775Z,8.38
2023-02-04T01:28:01.103Z,8.35
2023-02-04T01:30:46.399Z,8.41
2023-02-04T01:33:31.460Z,8.39
2023-02-04T01:36:21.642Z,8.38
2023-02-04T01:39:06.446Z,8.38
2023-02-04T01:41:51.851Z,8.41
2023-02-04T01:44:37.333Z,8.42
2023-02-04T01:47:23.663Z,8.39
2023-02-04T01:50:13.321Z,8.37
2023-02-04T01:52:58.971Z,8.41
2023-02-04T01:55:44.057Z,8.38
2023-02-04T01:58:32.202Z,8.35
2023-02-04T02:01:33.882Z,8.38
2023-02-04T02:04:28.865Z,8.35
2023-02-04T02:07:13.757Z,8.35
2023-02-04T02:09:58.856Z,8.35
2023-02-04T02:12:45.735Z,8.27
2023-02-04T02:15:31.270Z,8.30
2023-02-04T02:18:16.372Z,8.12
2023-02-04T02:21:09.326Z,8.26
2023-02-04T02:24:00.916Z,8.14
2023-02-04T02:26:46.139Z,8.27
2023-02-04T02:29:31.699Z,8.27
2023-02-04T02:32:17.504Z,8.26
2023-02-04T02:35:03.169Z,8.28
2023-02-04T02:37:48.166Z,8.26
2023-02-04T02:40:33.660Z,8.25
2023-02-04T02:43:24.074Z,8.18
2023-02-04T02:46:09.225Z,8.17
2023-02-04T02:48:54.696Z,8.24
2023-02-04T02:51:39.691Z,8.25
2023-02-04T02:54:29.766Z,8.27
2023-02-04T02:57:21.758Z,8.24
2023-02-04T03:00:18.636Z,8.29
2023-02-04T03:03:18.190Z,8.17
2023-02-04T03:06:14.217Z,8.26
2023-02-04T03:08:59.143Z,8.28
2023-02-04T03:11:44.641Z,8.28
2023-02-04T03:14:29.978Z,8.30
2023-02-04T03:17:15.532Z,8.29
2023-02-04T03:20:00.686Z,8.29
2023-02-04T03:22:45.926Z,8.27
2023-02-04T03:25:31.415Z,8.24
2023-02-04T03:28:16.774Z,8.29
2023-02-04T03:31:02.369Z,8.20
2023-02-04T03:33:47.693Z,8.30
2023-02-04T03:36:33.170Z,8.29
2023-02-04T03:39:18.257Z,8.29
2023-02-04T03:42:03.149Z,8.29
2023-02-04T03:44:48.120Z,8.25
2023-02-04T03:47:33.236Z,8.26
2023-02-04T03:50:18.549Z,8.22
2023-02-04T03:53:03.678Z,8.25
2023-02-04T03:55:48.611Z,8.26
2023-02-04T03:58:33.952Z,8.23
2023-02-04T04:01:19.171Z,8.22
2023-02-04T04:04:04.467Z,8.21
2023-02-04T04:06:49.881Z,8.16
2023-02-04T04:09:34.942Z,8.22
2023-02-04T04:12:20.215Z,8.26
2023-02-04T04:15:05.807Z,8.22
2023-02-04T04:17:51.166Z,8.22
2023-02-04T04:20:36.028Z,8.25
2023-02-04T04:23:21.269Z,8.25
2023-02-04T04:26:06.516Z,8.29
2023-02-04T04:28:51.457Z,8.27
2023-02-04T04:31:36.459Z,8.25
2023-02-04T04:34:21.965Z,8.27
2023-02-04T04:37:06.952Z,8.25
2023-02-04T04:39:51.949Z,8.13
2023-02-04T04:42:36.866Z,8.23
2023-02-04T04:45:22.004Z,8.22
2023-02-04T04:48:07.195Z,8.18
2023-02-04T04:50:52.530Z,8.24
2023-02-04T04:53:37.684Z,8.24
2023-02-04T04:56:22.978Z,8.16
2023-02-04T04:59:08.287Z,8.25
2023-02-04T05:01:53.381Z,8.15
2023-02-04T05:04:38.578Z,8.23
2023-02-04T05:07:23.409Z,8.14
2023-02-04T05:10:09.206Z,8.16
2023-02-04T05:12:54.084Z,8.13
2023-02-04T05:15:39.250Z,8.22
2023-02-04T05:18:24.696Z,8.21
2023-02-04T05:21:09.873Z,8.23
2023-02-04T05:23:55.372Z,8.22
2023-02-04T05:26:40.568Z,8.21
2023-02-04T05:29:25.748Z,8.08
2023-02-04T05:32:10.711Z,8.15
2023-02-04T05:34:55.735Z,8.15
2023-02-04T05:37:41.309Z,8.20
2023-02-04T05:40:26.718Z,8.19
2023-02-04T05:43:12.203Z,8.21
2023-02-04T05:45:57.963Z,8.19
2023-02-04T05:48:43.324Z,8.02
2023-02-04T05:51:28.660Z,8.18
2023-02-04T05:54:19.300Z,8.20
2023-02-04T05:57:04.401Z,8.21
2023-02-04T05:59:49.633Z,8.20
2023-02-04T06:02:34.846Z,8.17
2023-02-04T06:05:19.835Z,8.24
2023-02-04T06:08:05.046Z,8.22
2023-02-04T06:10:50.291Z,8.20
2023-02-04T06:13:35.288Z,8.21
2023-02-04T06:16:20.203Z,8.13
2023-02-04T06:19:05.199Z,8.20
2023-02-04T06:21:50.066Z,8.21
2023-02-04T06:24:35.129Z,8.11
2023-02-04T06:27:23.301Z,8.10
2023-02-04T06:30:10.565Z,8.19
2023-02-04T06:32:55.778Z,8.18
2023-02-04T06:35:40.889Z,8.20
2023-02-04T06:38:25.857Z,8.21
2023-02-04T06:41:11.057Z,8.21
2023-02-04T06:43:56.249Z,8.21
2023-02-04T06:46:41.391Z,8.20
2023-02-04T06:49:26.599Z,8.13
2023-02-04T06:52:20.536Z,8.24
2023-02-04T06:55:05.807Z,8.23
2023-02-04T06:57:50.763Z,8.23
2023-02-04T07:00:35.758Z,8.24
2023-02-04T07:03:20.820Z,8.23
2023-02-04T07:06:06.154Z,8.24
2023-02-04T07:08:51.548Z,8.22
2023-02-04T07:11:36.556Z,8.24
2023-02-04T07:14:21.674Z,8.24
2023-02-04T07:17:06.541Z,8.14
2023-02-04T07:19:52.667Z,8.12
2023-02-04T07:22:38.252Z,8.17
2023-02-04T07:25:23.450Z,8.17
2023-02-04T07:28:08.672Z,8.09
2023-02-04T07:30:53.624Z,8.11
2023-02-04T07:33:38.689Z,8.18
2023-02-04T07:36:24.000Z,8.15
2023-02-04T07:39:10.159Z,8.15
2023-02-04T07:41:55.197Z,8.15
2023-02-04T07:44:40.292Z,8.13
2023-02-04T07:47:25.381Z,7.98
2023-02-04T07:50:10.708Z,8.14
2023-02-04T07:52:55.725Z,8.12
2023-02-04T07:55:40.931Z,8.13
2023-02-04T07:58:25.946Z,8.13
2023-02-04T08:01:11.066Z,8.05
2023-02-04T08:03:56.120Z,8.16
2023-02-04T08:06:41.158Z,7.99
2023-02-04T08:09:27.142Z,8.17
2023-02-04T08:12:12.432Z,8.17
2023-02-04T08:14:57.626Z,8.18
2023-02-04T08:17:43.120Z,8.19
2023-02-04T08:20:28.172Z,8.14
2023-02-04T08:23:13.346Z,8.20
2023-02-04T08:25:59.785Z,8.21
2023-02-04T08:28:45.074Z,8.20
2023-02-04T08:31:30.809Z,8.21
2023-02-04T08:34:15.977Z,8.13
2023-02-04T08:37:00.712Z,8.23
2023-02-04T08:39:47.332Z,8.25
2023-02-04T08:42:32.523Z,8.26
2023-02-04T08:45:17.686Z,8.30
2023-02-04T08:48:02.646Z,8.33
2023-02-04T08:50:47.569Z,8.36
2023-02-04T08:53:32.619Z,8.40
2023-02-04T08:56:20.328Z,8.41
2023-02-04T08:59:05.613Z,8.41
2023-02-04T09:01:52.743Z,8.34
2023-02-04T09:04:37.682Z,8.41
2023-02-04T09:07:22.778Z,8.44
2023-02-04T09:10:08.266Z,8.51
2023-02-04T09:12:56.073Z,8.59
2023-02-04T09:15:41.301Z,8.52
2023-02-04T09:18:26.507Z,8.60
2023-02-04T09:21:11.766Z,8.53
2023-02-04T09:23:57.980Z,8.63
2023-02-04T09:26:43.365Z,8.64
2023-02-04T09:29:28.618Z,8.58
2023-02-04T09:32:13.935Z,8.66
2023-02-04T09:34:58.836Z,8.72
2023-02-04T09:37:43.646Z,8.72
2023-02-04T09:40:32.585Z,8.76
2023-02-04T09:43:22.953Z,8.69
2023-02-04T09:46:16.151Z,8.74
2023-02-04T09:49:03.554Z,8.77
2023-02-04T09:51:50.030Z,8.78
2023-02-04T09:54:35.237Z,8.79
2023-02-04T09:57:21.109Z,8.80
2023-02-04T10:00:18.593Z,8.83
2023-02-04T10:03:03.865Z,8.92
2023-02-04T10:05:49.770Z,9.18
2023-02-04T10:08:34.983Z,9.30
2023-02-04T10:11:22.171Z,9.36
2023-02-04T10:14:13.371Z,9.27
2023-02-04T10:17:01.320Z,9.34
2023-02-04T10:19:46.793Z,9.28
2023-02-04T10:22:32.188Z,9.39
2023-02-04T10:25:20.893Z,9.37
2023-02-04T10:28:05.880Z,9.43
2023-02-04T10:30:51.279Z,9.43
2023-02-04T10:33:38.570Z,9.38
2023-02-04T10:36:23.494Z,9.36
2023-02-04T10:39:20.183Z,9.43
2023-02-04T10:42:05.294Z,9.45
2023-02-04T10:44:51.578Z,9.47
2023-02-04T10:47:37.024Z,9.54
2023-02-04T10:50:24.934Z,9.58
2023-02-04T10:53:31.663Z,9.59
2023-02-04T10:56:21.629Z,9.56
2023-02-04T10:59:19.257Z,9.48
2023-02-04T11:02:24.161Z,9.59
2023-02-04T11:05:18.678Z,9.66
2023-02-04T11:08:20.405Z,9.69
2023-02-04T11:11:24.983Z,9.64
2023-02-04T11:14:28.271Z,9.62
2023-02-04T11:17:20.882Z,9.61
2023-02-04T11:20:17.216Z,9.67
2023-02-04T11:23:14.784Z,9.72
2023-02-04T11:26:13.366Z,9.78
2023-02-04T11:28:58.701Z,9.78
2023-02-04T11:31:57.764Z,9.76
2023-02-04T11:34:49.311Z,9.83
2023-02-04T11:37:39.975Z,9.85
2023-02-04T11:40:29.998Z,9.89
2023-02-04T11:43:16.259Z,9.89
2023-02-04T11:46:10.540Z,9.75
2023-02-04T11:48:57.741Z,9.98
2023-02-04T11:51:44.766Z,10.01
2023-02-04T11:54:29.680Z,10.10
2023-02-04T11:57:15.676Z,10.15
2023-02-04T12:00:00.887Z,10.17
2023-02-04T12:02:49.160Z,10.21
2023-02-04T12:05:45.232Z,10.23
2023-02-04T12:08:36.391Z,10.23
2023-02-04T12:11:27.488Z,10.27
2023-02-04T12:14:17.964Z,10.22
2023-02-04T12:17:18.132Z,10.29
2023-02-04T12:20:03.686Z,10.30
2023-02-04T12:22:48.728Z,10.31
2023-02-04T12:25:33.965Z,10.29
2023-02-04T12:28:19.997Z,10.30
2023-02-04T12:31:05.578Z,10.30
2023-02-04T12:33:51.058Z,10.38
2023-02-04T12:36:36.187Z,10.53
2023-02-04T12:39:21.183Z,10.48
2023-02-04T12:42:06.327Z,10.53
2023-02-04T12:44:51.760Z,10.52
2023-02-04T12:47:37.614Z,10.56
2023-02-04T12:50:22.866Z,10.55
2023-02-04T12:53:08.097Z,10.62
2023-02-04T12:55:53.332Z,10.69
2023-02-04T12:58:38.686Z,10.68
2023-02-04T13:01:23.610Z,10.62
2023-02-04T13:04:08.562Z,10.70
2023-02-04T13:06:53.687Z,10.64
2023-02-04T13:09:38.627Z,10.62
2023-02-04T13:12:23.580Z,10.51
2023-02-04T13:15:09.339Z,10.61
2023-02-04T13:17:54.412Z,10.53
2023-02-04T13:20:39.571Z,10.62
2023-02-04T13:23:24.761Z,10.53
2023-02-04T13:26:10.494Z,10.58
2023-02-04T13:28:55.370Z,10.53
2023-02-04T13:31:40.773Z,10.47
2023-02-04T13:34:25.891Z,10.56
2023-02-04T13:37:11.170Z,10.53
2023-02-04T13:39:56.226Z,10.72
2023-02-04T13:42:41.554Z,10.72
2023-02-04T13:45:27.036Z,10.63
2023-02-04T13:48:12.371Z,10.59
2023-02-04T13:50:57.362Z,10.57
2023-02-04T13:53:42.326Z,10.50
2023-02-04T13:56:28.194Z,10.43
2023-02-04T13:59:13.200Z,10.48
2023-02-04T14:01:58.290Z,10.51
2023-02-04T14:04:43.913Z,10.54
2023-02-04T14:07:30.407Z,10.49
2023-02-04T14:10:18.181Z,10.48
2023-02-04T14:13:03.061Z,10.37
2023-02-04T14:15:47.923Z,10.31
2023-02-04T14:18:32.890Z,10.26
2023-02-04T14:21:17.850Z,10.34
2023-02-04T14:24:03.373Z,10.28
2023-02-04T14:26:48.621Z,10.31
2023-02-04T14:29:34.583Z,10.18
2023-02-04T14:32:20.923Z,10.22
2023-02-04T14:35:06.228Z,10.19
2023-02-04T14:37:51.907Z,10.16
2023-02-04T14:40:37.028Z,10.16
2023-02-04T14:43:22.218Z,10.10
2023-02-04T14:46:07.385Z,9.99
2023-02-04T14:48:52.528Z,9.99
2023-02-04T14:51:37.511Z,9.87
2023-02-04T14:54:22.293Z,9.98
2023-02-04T14:57:11.222Z,9.89
2023-02-04T14:59:56.434Z,9.88
2023-02-04T15:02:42.614Z,9.82
2023-02-04T15:05:27.710Z,9.80
2023-02-04T15:08:12.556Z,9.80
2023-02-04T15:10:57.410Z,9.82
2023-02-04T15:13:42.408Z,9.81
2023-02-04T15:16:27.362Z,9.82
2023-02-04T15:19:12.765Z,9.66
2023-02-04T15:21:57.877Z,9.70
2023-02-04T15:24:43.150Z,9.66
2023-02-04T15:27:28.257Z,9.65
2023-02-04T15:30:14.000Z,9.64
2023-02-04T15:32:59.303Z,9.54
2023-02-04T15:35:44.215Z,9.66
2023-02-04T15:38:29.279Z,9.69
2023-02-04T15:41:14.370Z,9.59
2023-02-04T15:43:59.455Z,9.66
2023-02-04T15:46:44.392Z,9.64
2023-02-04T15:49:29.498Z,9.62
2023-02-04T15:52:24.206Z,9.47
2023-02-04T15:55:10.567Z,9.56
2023-02-04T15:57:56.008Z,9.56
2023-02-04T16:00:41.750Z,9.55
2023-02-04T16:03:27.214Z,9.52
2023-02-04T16:06:12.701Z,9.50
2023-02-04T16:08:57.749Z,9.47
2023-02-04T16:11:42.611Z,9.47
2023-02-04T16:14:27.452Z,9.41
2023-02-04T16:17:12.347Z,9.33
2023-02-04T16:19:58.050Z,9.46
2023-02-04T16:22:43.424Z,9.41
2023-02-04T16:25:28.473Z,9.36
2023-02-04T16:28:13.617Z,9.31
2023-02-04T16:30:58.706Z,9.30
2023-02-04T16:33:43.769Z,9.29
2023-02-04T16:36:28.689Z,9.26
2023-02-04T16:39:13.618Z,9.25
2023-02-04T16:41:59.130Z,9.23
2023-02-04T16:44:44.247Z,9.19
2023-02-04T16:47:29.269Z,9.15
2023-02-04T16:50:14.174Z,9.14
2023-02-04T16:52:59.507Z,9.14
2023-02-04T16:55:45.696Z,9.02
2023-02-04T16:58:30.754Z,8.95
2023-02-04T17:01:17.287Z,8.99
2023-02-04T17:04:02.658Z,8.94
2023-02-04T17:06:47.992Z,8.90
2023-02-04T17:09:33.139Z,8.89
2023-02-04T17:12:18.164Z,8.79
2023-02-04T17:15:03.567Z,8.86
2023-02-04T17:17:48.513Z,8.84
2023-02-04T17:20:33.650Z,8.85
2023-02-04T17:23:18.827Z,8.79
2023-02-04T17:26:03.940Z,8.82
2023-02-04T17:28:50.716Z,8.78
2023-02-04T17:31:36.294Z,8.77
2023-02-04T17:34:21.406Z,8.80
2023-02-04T17:37:06.638Z,8.77
2023-02-04T17:39:51.853Z,8.75
2023-02-04T17:42:36.762Z,8.73
2023-02-04T17:45:22.005Z,8.81
2023-02-04T17:48:07.111Z,8.81
2023-02-04T17:50:53.294Z,8.73
2023-02-04T17:53:40.400Z,8.70
2023-02-04T17:56:25.972Z,8.78
2023-02-04T17:59:11.268Z,8.68
2023-02-04T18:01:56.648Z,8.69
2023-02-04T18:04:42.011Z,8.63
2023-02-04T18:07:27.429Z,8.71
2023-02-04T18:10:37.244Z,8.65
2023-02-04T18:13:29.134Z,8.53
2023-02-04T18:16:30.419Z,8.58
2023-02-04T18:19:20.057Z,8.48
2023-02-04T18:22:09.021Z,8.51
2023-02-04T18:24:53.970Z,8.54
2023-02-04T18:27:38.810Z,8.54
2023-02-04T18:30:27.716Z,8.53
2023-02-04T18:33:24.884Z,8.52
2023-02-04T18:36:11.895Z,8.52
2023-02-04T18:38:57.131Z,8.54
2023-02-04T18:41:44.991Z,8.55
2023-02-04T18:44:37.915Z,8.54
2023-02-04T18:47:31.029Z,8.50
2023-02-04T18:50:22.081Z,8.48
2023-02-04T18:53:13.708Z,8.49
2023-02-04T18:56:02.111Z,8.48
2023-02-04T18:58:49.170Z,8.47
2023-02-04T19:01:38.906Z,8.46
2023-02-04T19:04:26.071Z,8.43
2023-02-04T19:07:14.468Z,8.45
2023-02-04T19:09:59.964Z,8.34
2023-02-04T19:12:44.952Z,8.43
2023-02-04T19:15:37.712Z,8.33
2023-02-04T19:18:29.577Z,8.42
2023-02-04T19:21:22.510Z,8.42
2023-02-04T19:24:17.713Z,8.38
2023-02-04T19:27:36.794Z,8.27
2023-02-04T19:30:28.094Z,8.43
2023-02-04T19:33:38.046Z,8.43
2023-02-04T19:36:36.967Z,8.48
2023-02-04T19:39:28.373Z,8.48
2023-02-04T19:42:34.710Z,8.46
2023-02-04T19:45:22.996Z,8.39
2023-02-04T19:48:37.599Z,8.46
2023-02-04T19:51:28.709Z,8.41
2023-02-04T19:54:20.004Z,8.36
2023-02-04T19:57:21.851Z,8.23
2023-02-04T20:00:25.797Z,8.28
2023-02-04T20:03:19.903Z,8.26
2023-02-04T20:06:25.793Z,8.25
2023-02-04T20:09:15.604Z,8.19
2023-02-04T20:12:06.485Z,8.19
2023-02-04T20:14:56.553Z,8.26
2023-02-04T20:17:47.517Z,8.24
2023-02-04T20:20:33.362Z,8.15
2023-02-04T20:23:24.332Z,8.21
2023-02-04T20:26:10.176Z,8.25
2023-02-04T20:28:56.119Z,8.30
2023-02-04T20:31:41.119Z,8.19
2023-02-04T20:34:27.241Z,8.34
2023-02-04T20:37:25.714Z,8.38
2023-02-04T20:40:33.404Z,8.35
2023-02-04T20:43:21.256Z,8.35
2023-02-04T20:46:07.790Z,8.32
2023-02-04T20:48:53.059Z,8.28
2023-02-04T20:51:38.154Z,8.28
2023-02-04T20:54:23.199Z,8.25
2023-02-04T20:57:17.644Z,8.21
2023-02-04T21:00:31.967Z,8.15
2023-02-04T21:03:33.477Z,8.25
2023-02-04T21:06:35.142Z,8.17
2023-02-04T21:09:29.096Z,8.10
2023-02-04T21:12:14.685Z,8.15
2023-02-04T21:15:00.010Z,8.09
2023-02-04T21:17:45.313Z,8.16
2023-02-04T21:20:33.464Z,8.12
2023-02-04T21:23:19.577Z,8.09
2023-02-04T21:26:05.620Z,8.14
2023-02-04T21:28:50.588Z,8.09
2023-02-04T21:31:35.953Z,8.15
2023-02-04T21:34:20.878Z,8.10
2023-02-04T21:37:06.092Z,8.12
2023-02-04T21:39:51.164Z,8.15
2023-02-04T21:42:36.133Z,8.22
2023-02-04T21:45:23.128Z,8.25
2023-02-04T21:48:08.098Z,8.26
2023-02-04T21:50:53.872Z,8.21
2023-02-04T21:53:39.125Z,8.20
2023-02-04T21:56:24.134Z,8.22
2023-02-04T21:59:09.472Z,8.20
2023-02-04T22:01:54.738Z,8.09
2023-02-04T22:04:39.863Z,8.18
2023-02-04T22:07:24.831Z,8.23
2023-02-04T22:10:16.349Z,8.21
2023-02-04T22:13:01.548Z,8.18
2023-02-04T22:15:47.933Z,8.16
2023-02-04T22:18:33.125Z,8.19
2023-02-04T22:21:18.139Z,8.15
2023-02-04T22:24:03.359Z,8.17
2023-02-04T22:26:51.596Z,8.13
2023-02-04T22:29:36.554Z,8.05
2023-02-04T22:32:23.060Z,8.04
2023-02-04T22:35:12.701Z,8.00
2023-02-04T22:37:59.998Z,7.98
2023-02-04T22:40:48.405Z,8.05
2023-02-04T22:43:33.347Z,8.07
2023-02-04T22:46:18.524Z,7.99
2023-02-04T22:49:03.538Z,8.11
2023-02-04T22:51:48.908Z,8.07
2023-02-04T22:54:34.310Z,8.13
2023-02-04T22:57:19.607Z,8.03
2023-02-04T23:00:08.969Z,8.10
2023-02-04T23:02:53.944Z,8.12
2023-02-04T23:05:39.430Z,8.04
2023-02-04T23:08:24.494Z,8.14
2023-02-04T23:11:09.723Z,8.13
2023-02-04T23:13:55.757Z,8.06
2023-02-04T23:16:40.769Z,8.04
2023-02-04T23:19:25.625Z,7.95
2023-02-04T23:22:11.941Z,8.20
2023-02-04T23:24:58.035Z,8.14
2023-02-04T23:27:42.894Z,8.14
2023-02-04T23:30:28.211Z,8.09
2023-02-04T23:33:13.300Z,8.13
2023-02-04T23:35:58.264Z,8.13
2023-02-04T23:38:43.598Z,8.15
2023-02-04T23:41:28.964Z,8.04
2023-02-04T23:44:14.315Z,8.10
2023-02-04T23:46:59.487Z,8.10
2023-02-04T23:49:44.465Z,8.12
2023-02-04T23:52:29.535Z,8.15
2023-02-04T23:55:15.176Z,8.15
2023-02-04T23:58:01.112Z,8.15
